Time;durP1;ratioP1;P1;durP2;ratioP2;P2;SDS_P1;SDS_P2;PMS_P1;PMS_P2;Temp;Humidity;BMP_temperature;BMP_pressure;BME280_temperature;BME280_humidity;BME280_pressure;Samples;Min_cycle;Max_cycle;Signal;HPM_P1;HPM_P2
2022/09/16 00:01:30;;;;;;;2.42;1.17;;;14.30;99.90;;;;;;5052761;28;20037;-78
2022/09/16 00:03:56;;;;;;;4.20;1.08;;;14.30;99.90;;;;;;5033562;28;20033;-79
2022/09/16 00:06:28;;;;;;;4.95;1.05;;;14.30;99.90;;;;;;5052354;28;20053;-77
2022/09/16 00:08:56;;;;;;;4.10;1.45;;;14.30;99.90;;;;;;5053143;28;20025;-78
2022/09/16 00:11:22;;;;;;;7.43;1.33;;;14.30;99.90;;;;;;5051788;28;20032;-78
2022/09/16 00:13:49;;;;;;;3.53;1.17;;;14.20;99.90;;;;;;5051232;28;20033;-77
2022/09/16 00:16:22;;;;;;;3.22;1.13;;;14.20;99.90;;;;;;5017441;28;20826;-77
2022/09/16 00:18:52;;;;;;;3.58;1.48;;;14.20;99.90;;;;;;5052778;28;20029;-78
2022/09/16 00:21:18;;;;;;;6.30;1.77;;;14.20;99.90;;;;;;5051119;28;20181;-77
2022/09/16 00:23:44;;;;;;;3.67;1.05;;;14.20;99.90;;;;;;5050767;28;20029;-77
2022/09/16 00:26:10;;;;;;;2.42;1.27;;;14.20;99.90;;;;;;5052204;28;20060;-77
2022/09/16 00:28:36;;;;;;;3.22;1.33;;;14.20;99.90;;;;;;5051744;28;20047;-78
2022/09/16 00:31:03;;;;;;;4.55;1.58;;;14.20;99.90;;;;;;5051880;28;20036;-78
2022/09/16 00:33:30;;;;;;;4.45;1.83;;;14.30;99.90;;;;;;5044349;28;20036;-78
2022/09/16 00:36:16;;;;;;;3.92;1.23;;;14.30;99.90;;;;;;5051797;28;20037;-79
2022/09/16 00:38:43;;;;;;;4.18;1.08;;;14.20;99.90;;;;;;5052198;28;20060;-78
2022/09/16 00:41:16;;;;;;;4.97;1.55;;;14.20;99.90;;;;;;5051218;28;20029;-77
2022/09/16 00:43:58;;;;;;;3.22;1.15;;;14.10;99.90;;;;;;5032467;28;20112;-77
2022/09/16 00:46:46;;;;;;;6.53;1.40;;;14.00;99.90;;;;;;5051014;28;20041;-77
2022/09/16 00:49:17;;;;;;;3.35;1.50;;;14.00;99.90;;;;;;5051691;28;20037;-77
2022/09/16 00:51:46;;;;;;;5.85;1.30;;;14.00;99.90;;;;;;5033459;28;20033;-77
2022/09/16 00:54:17;;;;;;;4.85;1.20;;;14.00;99.90;;;;;;5050152;28;20033;-77
2022/09/16 00:56:45;;;;;;;;;;;14.10;99.90;;;;;;5051807;28;20048;-76
2022/09/16 00:59:17;;;;;;;1.90;0.88;;;14.20;99.90;;;;;;5050054;28;19917;-77
2022/09/16 01:01:44;;;;;;;8.35;1.20;;;14.20;99.90;;;;;;5050154;28;20037;-77
2022/09/16 01:04:51;;;;;;;3.20;1.20;;;14.20;99.90;;;;;;5049746;28;20033;-77
2022/09/16 01:07:25;;;;;;;3.33;0.82;;;14.30;99.90;;;;;;5013753;28;20053;-76
2022/09/16 01:09:52;;;;;;;1.83;0.90;;;14.30;99.90;;;;;;5056958;28;20041;-77
2022/09/16 01:12:18;;;;;;;2.97;1.05;;;14.30;99.90;;;;;;5037622;28;20049;-76
2022/09/16 01:14:53;;;;;;;2.15;0.80;;;14.30;99.90;;;;;;5055060;28;20033;-77
2022/09/16 01:17:20;;;;;;;4.38;1.70;;;14.30;99.90;;;;;;5054338;28;20029;-77
2022/09/16 01:19:58;;;;;;;3.38;1.23;;;14.30;99.90;;;;;;5048696;28;20029;-76
2022/09/16 01:22:57;;;;;;;3.47;1.23;;;14.30;99.90;;;;;;5035000;28;20048;-77
2022/09/16 01:25:47;;;;;;;2.60;1.60;;;14.30;99.90;;;;;;5054517;28;20041;-77
2022/09/16 01:28:51;;;;;;;3.28;0.95;;;14.30;99.90;;;;;;5054135;28;20052;-77
2022/09/16 01:31:23;;;;;;;4.93;1.27;;;14.20;99.90;;;;;;5039090;28;20033;-77
2022/09/16 01:34:00;;;;;;;5.68;1.55;;;14.20;99.90;;;;;;5040907;28;20032;-77
2022/09/16 01:36:38;;;;;;;5.38;1.35;;;14.30;99.90;;;;;;5042626;28;20037;-77
2022/09/16 01:39:28;;;;;;;2.70;1.25;;;14.20;99.90;;;;;;5055132;28;20370;-77
2022/09/16 01:42:38;;;;;;;6.13;1.63;;;14.20;99.90;;;;;;5055270;28;20501;-77
2022/09/16 01:45:38;;;;;;;4.00;1.40;;;14.20;99.90;;;;;;5056087;28;20033;-78
2022/09/16 01:48:33;;;;;;;6.47;1.23;;;14.20;99.90;;;;;;5056991;28;20055;-78
2022/09/16 01:51:10;;;;;;;3.88;1.73;;;14.20;99.90;;;;;;5055676;28;20060;-77
2022/09/16 01:53:46;;;;;;;3.30;2.03;;;14.20;99.90;;;;;;5054746;28;20493;-77
2022/09/16 01:56:25;;;;;;;4.68;1.40;;;14.20;99.90;;;;;;5053719;28;20366;-78
2022/09/16 01:59:03;;;;;;;4.57;1.48;;;14.20;99.90;;;;;;5035696;28;20512;-77
2022/09/16 02:01:33;;;;;;;5.15;1.50;;;14.10;99.90;;;;;;5035486;28;20028;-77
2022/09/16 02:04:05;;;;;;;5.22;1.30;;;14.10;99.90;;;;;;5053023;28;20025;-77
2022/09/16 02:06:32;;;;;;;3.25;1.08;;;14.00;99.90;;;;;;5053950;28;20048;-77
2022/09/16 02:09:03;;;;;;;8.00;1.48;;;14.00;99.90;;;;;;5054043;28;20386;-77
2022/09/16 02:11:29;;;;;;;4.05;1.55;;;13.90;99.90;;;;;;5053038;28;20040;-78
2022/09/16 02:14:05;;;;;;;3.22;1.58;;;13.80;99.90;;;;;;5053171;28;20370;-78
2022/09/16 02:16:44;;;;;;;4.95;1.60;;;13.80;99.90;;;;;;5035863;28;20049;-78
2022/09/16 02:19:25;;;;;;;3.80;1.50;;;13.80;99.90;;;;;;5053208;28;20033;-78
2022/09/16 02:21:53;;;;;;;;;;;13.80;99.90;;;;;;5053649;28;20037;-78
2022/09/16 02:24:21;;;;;;;5.72;1.75;;;13.80;99.90;;;;;;5053921;28;20273;-77
2022/09/16 02:26:59;;;;;;;3.97;1.58;;;13.80;99.90;;;;;;5053963;28;20037;-78
2022/09/16 02:29:31;;;;;;;9.70;1.50;;;13.90;99.90;;;;;;5035482;28;20036;-77
2022/09/16 02:32:01;;;;;;;3.58;1.88;;;13.90;99.90;;;;;;5053315;28;20036;-77
2022/09/16 02:34:37;;;;;;;2.65;1.38;;;13.90;99.90;;;;;;5053629;28;20040;-77
2022/09/16 02:37:19;;;;;;;6.00;1.90;;;13.90;99.90;;;;;;5054296;28;20048;-77
2022/09/16 02:39:49;;;;;;;3.20;1.25;;;13.90;99.90;;;;;;5059714;28;20048;-77
2022/09/16 02:42:15;;;;;;;4.70;1.33;;;13.90;99.90;;;;;;5062304;28;20044;-77
2022/09/16 02:44:44;;;;;;;2.92;1.60;;;13.90;99.90;;;;;;5063224;28;20040;-77
2022/09/16 02:47:53;;;;;;;5.05;1.80;;;13.90;99.90;;;;;;5061671;28;20370;-77
2022/09/16 02:50:37;;;;;;;3.20;1.38;;;13.90;99.90;;;;;;5057158;28;20095;-76
2022/09/16 02:53:23;;;;;;;3.88;1.52;;;13.90;99.90;;;;;;5034622;28;20044;-77
2022/09/16 02:55:58;;;;;;;2.22;1.23;;;13.90;99.90;;;;;;5053498;28;20044;-77
2022/09/16 02:58:24;;;;;;;4.47;1.77;;;14.00;99.90;;;;;;5052389;28;20600;-77
2022/09/16 03:00:54;;;;;;;2.33;1.23;;;14.00;99.90;;;;;;5034707;28;20049;-77
2022/09/16 03:03:20;;;;;;;2.72;1.00;;;14.00;99.90;;;;;;5030951;28;20041;-77
2022/09/16 03:06:17;;;;;;;3.80;1.45;;;14.00;99.90;;;;;;5033876;28;20025;-77
2022/09/16 03:08:44;;;;;;;3.50;1.55;;;14.00;99.90;;;;;;5025000;28;20056;-77
2022/09/16 03:11:44;;;;;;;5.03;1.70;;;14.00;99.90;;;;;;5033392;28;20033;-78
2022/09/16 03:14:47;;;;;;;6.38;2.10;;;14.00;99.90;;;;;;5029406;28;20040;-78
2022/09/16 03:17:40;;;;;;;5.35;1.55;;;14.00;99.90;;;;;;5032700;28;20052;-77
2022/09/16 03:20:31;;;;;;;5.35;2.05;;;14.00;99.90;;;;;;5016018;28;20053;-79
2022/09/16 03:23:24;;;;;;;3.05;1.75;;;14.00;99.90;;;;;;5032197;28;20032;-77
2022/09/16 03:26:07;;;;;;;5.00;1.98;;;14.00;99.90;;;;;;5030774;28;20033;-77
2022/09/16 03:29:03;;;;;;;3.05;1.55;;;13.90;99.90;;;;;;5033038;28;20041;-78
2022/09/16 03:31:47;;;;;;;3.45;1.52;;;14.00;99.90;;;;;;4996836;28;20048;-77
2022/09/16 03:34:22;;;;;;;3.75;1.63;;;14.00;99.90;;;;;;5032697;28;20025;-78
2022/09/16 03:37:01;;;;;;;3.85;1.80;;;13.90;99.90;;;;;;5032986;28;20044;-77
2022/09/16 03:39:28;;;;;;;2.03;1.33;;;14.00;99.90;;;;;;5026983;28;20656;-77
2022/09/16 03:42:03;;;;;;;3.92;1.63;;;13.90;99.90;;;;;;5025368;28;20029;-77
2022/09/16 03:44:34;;;;;;;4.05;1.58;;;13.80;99.90;;;;;;5032044;28;20199;-77
2022/09/16 03:47:07;;;;;;;5.47;2.58;;;13.80;99.90;;;;;;5032607;28;20037;-77
2022/09/16 03:49:34;;;;;;;6.70;1.95;;;13.70;99.90;;;;;;5028652;28;20041;-78
2022/09/16 03:52:00;;;;;;;7.18;1.60;;;13.60;99.90;;;;;;5031065;28;20376;-77
2022/09/16 03:54:27;;;;;;;2.80;1.35;;;13.60;99.90;;;;;;5031842;28;20055;-77
2022/09/16 03:56:53;;;;;;;4.32;1.40;;;13.50;99.90;;;;;;5033715;28;20041;-77
2022/09/16 03:59:19;;;;;;;4.38;1.85;;;13.50;99.90;;;;;;5031320;28;20501;-78
2022/09/16 04:01:45;;;;;;;6.10;2.10;;;13.40;99.90;;;;;;5030899;28;20044;-78
2022/09/16 04:04:12;;;;;;;8.05;2.15;;;13.40;99.90;;;;;;5031304;28;20048;-78
2022/09/16 04:06:38;;;;;;;2.92;1.50;;;13.40;99.90;;;;;;5031658;28;20044;-76
2022/09/16 04:09:06;;;;;;;7.50;1.52;;;13.40;99.90;;;;;;5031575;28;20104;-76
2022/09/16 04:11:33;;;;;;;3.53;1.75;;;13.30;99.90;;;;;;5029588;28;20034;-76
2022/09/16 04:14:00;;;;;;;5.90;1.92;;;13.30;99.90;;;;;;5032157;28;20374;-77
2022/09/16 04:16:26;;;;;;;5.88;1.90;;;13.30;99.90;;;;;;5030987;28;20037;-77
2022/09/16 04:18:53;;;;;;;4.30;1.98;;;13.30;99.90;;;;;;5031851;28;20037;-77
2022/09/16 04:21:19;;;;;;;5.38;2.00;;;13.30;99.90;;;;;;5029691;28;20038;-77
2022/09/16 04:23:45;;;;;;;5.80;2.17;;;13.20;99.90;;;;;;5030783;28;20034;-77
2022/09/16 04:26:11;;;;;;;5.47;1.80;;;13.20;99.90;;;;;;5030877;28;20037;-78
2022/09/16 04:28:37;;;;;;;3.58;2.00;;;13.10;99.90;;;;;;5031266;28;20030;-76
2022/09/16 04:31:06;;;;;;;5.13;1.60;;;13.10;99.90;;;;;;5031589;28;20040;-77
2022/09/16 04:33:34;;;;;;;6.32;1.63;;;13.10;99.90;;;;;;5030953;28;20039;-80
2022/09/16 04:36:12;;;;;;;5.65;1.58;;;13.10;99.90;;;;;;5030330;28;20061;-77
2022/09/16 04:38:39;;;;;;;5.93;2.10;;;13.10;99.90;;;;;;5031429;28;20025;-77
2022/09/16 04:41:08;;;;;;;5.05;2.17;;;13.10;99.90;;;;;;5033162;28;20447;-77
2022/09/16 04:43:35;;;;;;;4.15;1.65;;;13.10;99.90;;;;;;5035961;28;20029;-76
2022/09/16 04:46:03;;;;;;;4.38;2.10;;;13.10;99.90;;;;;;5037831;28;20025;-77
2022/09/16 04:48:29;;;;;;;3.85;2.75;;;13.20;99.90;;;;;;5035577;28;20899;-76
2022/09/16 04:51:05;;;;;;;8.43;2.08;;;13.20;99.90;;;;;;5037991;28;20029;-76
2022/09/16 04:53:32;;;;;;;6.43;2.13;;;13.30;99.90;;;;;;5036141;28;20210;-75
2022/09/16 04:56:14;;;;;;;11.50;2.72;;;13.20;99.90;;;;;;5037930;28;20045;-76
2022/09/16 04:58:41;;;;;;;6.45;2.13;;;13.20;99.90;;;;;;5037453;28;20040;-75
2022/09/16 05:01:29;;;;;;;3.42;2.08;;;13.20;99.90;;;;;;5037109;28;20041;-77
2022/09/16 05:03:58;;;;;;;5.07;2.15;;;13.20;99.90;;;;;;5037926;28;20041;-76
2022/09/16 05:06:33;;;;;;;5.90;2.63;;;13.20;99.90;;;;;;5036209;28;20379;-77
2022/09/16 05:08:59;;;;;;;6.25;2.13;;;13.30;99.90;;;;;;5036553;28;20041;-76
2022/09/16 05:11:32;;;;;;;6.65;2.20;;;13.30;99.90;;;;;;5035752;28;20386;-77
2022/09/16 05:14:04;;;;;;;4.13;2.35;;;13.30;99.90;;;;;;5037508;28;20398;-77
2022/09/16 05:16:31;;;;;;;4.43;2.10;;;13.40;99.90;;;;;;5036792;28;20033;-75
2022/09/16 05:18:59;;;;;;;5.80;2.00;;;13.30;99.90;;;;;;5038088;28;20037;-77
2022/09/16 05:21:27;;;;;;;10.43;2.42;;;13.40;99.90;;;;;;5037706;28;20033;-76
2022/09/16 05:23:57;;;;;;;8.20;1.92;;;13.40;99.90;;;;;;5037333;28;20376;-76
2022/09/16 05:26:26;;;;;;;3.83;2.00;;;13.30;99.90;;;;;;5037499;28;20029;-76
2022/09/16 05:28:53;;;;;;;7.78;2.45;;;13.30;99.90;;;;;;5037992;28;20052;-76
2022/09/16 05:31:21;;;;;;;10.48;2.53;;;13.30;99.90;;;;;;5036302;28;20036;-77
2022/09/16 05:34:18;;;;;;;3.03;1.80;;;13.30;99.90;;;;;;5037403;28;20099;-76
2022/09/16 05:36:46;;;;;;;3.05;1.90;;;13.30;99.90;;;;;;5037464;28;20056;-76
2022/09/16 05:39:16;;;;;;;4.70;2.40;;;13.30;99.90;;;;;;5034475;28;20490;-82
2022/09/16 05:41:43;;;;;;;6.93;2.45;;;13.30;99.90;;;;;;5036266;28;20044;-76
2022/09/16 05:44:09;;;;;;;7.20;2.10;;;13.30;99.90;;;;;;5037437;28;20036;-76
2022/09/16 05:46:36;;;;;;;38.10;16.88;;;13.30;99.90;;;;;;5037212;28;20029;-77
2022/09/16 05:49:03;;;;;;;31.13;13.23;;;13.40;99.90;;;;;;5037531;28;20044;-76
2022/09/16 05:51:30;;;;;;;26.35;11.00;;;13.30;99.90;;;;;;5036487;28;20034;-76
2022/09/16 05:53:58;;;;;;;27.45;12.27;;;13.30;99.90;;;;;;5034121;28;20044;-76
2022/09/16 05:56:28;;;;;;;32.38;12.40;;;13.40;99.90;;;;;;5034462;28;20033;-76
2022/09/16 05:58:57;;;;;;;28.77;11.10;;;13.40;99.90;;;;;;5036642;28;20053;-76
2022/09/16 06:01:26;;;;;;;22.20;9.90;;;13.50;99.90;;;;;;5052906;28;20579;-78
2022/09/16 06:03:53;;;;;;;27.13;10.65;;;13.60;99.90;;;;;;5054326;28;20033;-76
2022/09/16 06:06:24;;;;;;;20.83;10.43;;;13.60;99.90;;;;;;5035906;28;20390;-76
2022/09/16 06:08:52;;;;;;;23.30;8.75;;;13.80;99.90;;;;;;5056198;28;20032;-76
2022/09/16 06:11:19;;;;;;;6.07;3.08;;;13.80;99.90;;;;;;5057302;28;20039;-77
2022/09/16 06:13:45;;;;;;;4.90;1.90;;;13.90;99.90;;;;;;5060961;28;20032;-77
2022/09/16 06:16:13;;;;;;;7.40;2.90;;;13.90;99.90;;;;;;5060049;28;20036;-86
2022/09/16 06:18:39;;;;;;;7.90;1.70;;;14.10;99.90;;;;;;5057105;28;20037;-78
2022/09/16 06:21:08;;;;;;;4.15;1.90;;;14.10;99.90;;;;;;5058394;28;20025;-77
2022/09/16 06:23:35;;;;;;;4.22;1.77;;;14.20;99.90;;;;;;5060623;28;20016;-77
2022/09/16 06:26:07;;;;;;;4.55;1.55;;;14.20;99.90;;;;;;5058043;28;20390;-77
2022/09/16 06:28:34;;;;;;;7.07;1.50;;;14.30;99.90;;;;;;5056757;28;20033;-76
2022/09/16 06:31:11;;;;;;;7.28;1.45;;;14.30;99.90;;;;;;5057732;28;20028;-81
2022/09/16 06:33:38;;;;;;;5.38;1.90;;;14.40;99.90;;;;;;5057348;28;20056;-77
2022/09/16 06:36:06;;;;;;;6.35;1.60;;;14.50;99.90;;;;;;5056058;28;20040;-77
2022/09/16 06:38:32;;;;;;;3.50;1.55;;;14.50;99.90;;;;;;5040226;28;20481;-77
2022/09/16 06:41:00;;;;;;;4.55;1.63;;;14.60;99.90;;;;;;5056582;28;20029;-81
2022/09/16 06:43:26;;;;;;;4.22;1.60;;;14.60;99.90;;;;;;5053939;28;20470;-77
2022/09/16 06:46:01;;;;;;;6.03;1.70;;;14.70;99.90;;;;;;5053950;28;20029;-77
2022/09/16 06:48:28;;;;;;;6.97;1.40;;;14.60;99.90;;;;;;5053766;28;20033;-77
2022/09/16 06:51:06;;;;;;;5.50;1.45;;;14.70;99.90;;;;;;5054411;28;20386;-76
2022/09/16 06:53:32;;;;;;;4.45;1.50;;;14.70;99.90;;;;;;5052474;28;20025;-76
2022/09/16 06:56:03;;;;;;;3.85;1.20;;;14.70;99.90;;;;;;5053506;28;20040;-75
2022/09/16 06:58:34;;;;;;;3.00;1.17;;;14.60;99.90;;;;;;5035272;28;20052;-76
2022/09/16 07:01:09;;;;;;;3.13;1.63;;;14.70;99.90;;;;;;5053152;28;20068;-76
2022/09/16 07:03:44;;;;;;;5.40;1.52;;;14.70;99.90;;;;;;5053262;28;20025;-79
2022/09/16 07:06:11;;;;;;;2.25;1.13;;;14.70;99.90;;;;;;5054407;28;20040;-76
2022/09/16 07:08:38;;;;;;;2.58;1.00;;;14.80;99.90;;;;;;5058125;28;20531;-76
2022/09/16 07:11:13;;;;;;;4.85;1.20;;;14.80;99.90;;;;;;5052115;28;20033;-77
2022/09/16 07:13:40;;;;;;;3.05;0.98;;;14.80;99.90;;;;;;5049822;28;20063;-75
2022/09/16 07:16:13;;;;;;;3.47;1.10;;;14.90;99.90;;;;;;5053414;28;20040;-76
2022/09/16 07:18:39;;;;;;;4.10;1.13;;;15.00;99.90;;;;;;5052599;28;20112;-75
2022/09/16 07:21:11;;;;;;;5.38;1.20;;;15.00;99.90;;;;;;5052127;28;20029;-77
2022/09/16 07:23:38;;;;;;;3.72;1.00;;;15.10;99.90;;;;;;5052421;28;20082;-76
2022/09/16 07:26:13;;;;;;;6.18;0.98;;;15.20;99.90;;;;;;5053120;28;20029;-75
2022/09/16 07:28:41;;;;;;;3.92;1.13;;;15.40;99.90;;;;;;5052114;28;20048;-76
2022/09/16 07:31:10;;;;;;;2.35;0.60;;;15.30;99.90;;;;;;5052069;28;20036;-75
2022/09/16 07:33:38;;;;;;;6.47;1.10;;;15.30;99.90;;;;;;5051745;28;20025;-76
2022/09/16 07:36:06;;;;;;;3.90;1.10;;;15.30;99.90;;;;;;5052806;28;20033;-76
2022/09/16 07:38:32;;;;;;;3.80;1.23;;;15.30;99.90;;;;;;5052218;28;20385;-77
2022/09/16 07:41:06;;;;;;;3.13;1.20;;;15.20;99.90;;;;;;5052272;28;20041;-76
2022/09/16 07:43:33;;;;;;;5.15;1.10;;;15.10;99.90;;;;;;5051397;28;20056;-77
2022/09/16 07:46:00;;;;;;;4.82;0.70;;;15.20;99.90;;;;;;5051881;28;20025;-78
2022/09/16 07:48:29;;;;;;;3.22;1.15;;;15.20;99.90;;;;;;5050584;28;20112;-76
2022/09/16 07:50:57;;;;;;;2.95;1.20;;;15.30;99.90;;;;;;5051906;28;20025;-77
2022/09/16 07:53:26;;;;;;;4.32;1.70;;;15.40;99.90;;;;;;5050494;28;20052;-77
2022/09/16 07:55:53;;;;;;;4.07;1.10;;;15.30;99.90;;;;;;5052077;28;20036;-77
2022/09/16 07:58:20;;;;;;;3.15;1.05;;;15.30;99.90;;;;;;5051479;28;20041;-83
2022/09/16 08:00:47;;;;;;;2.10;0.80;;;15.40;99.90;;;;;;5051800;28;20045;-79
2022/09/16 08:03:14;;;;;;;6.63;1.02;;;15.50;99.90;;;;;;5051198;28;20524;-76
2022/09/16 08:05:41;;;;;;;2.22;0.65;;;15.60;99.90;;;;;;5051159;28;20044;-77
2022/09/16 08:08:07;;;;;;;4.10;1.30;;;15.50;99.90;;;;;;5033797;28;20037;-78
2022/09/16 08:10:35;;;;;;;3.88;1.50;;;15.50;99.90;;;;;;5051635;28;20033;-78
2022/09/16 08:13:03;;;;;;;5.53;1.20;;;15.50;99.90;;;;;;5051100;28;20033;-78
2022/09/16 08:15:30;;;;;;;4.72;1.10;;;15.30;99.90;;;;;;5050245;28;20390;-74
2022/09/16 08:17:56;;;;;;;6.28;1.13;;;15.40;99.90;;;;;;5035626;28;20048;-89
2022/09/16 08:20:24;;;;;;;4.50;0.73;;;15.50;99.90;;;;;;5034122;28;20030;-77
2022/09/16 08:22:50;;;;;;;4.90;1.17;;;15.60;99.90;;;;;;5049671;28;20366;-75
2022/09/16 08:25:16;;;;;;;3.28;1.08;;;15.60;99.90;;;;;;5051465;28;20029;-82
2022/09/16 08:27:43;;;;;;;3.75;1.05;;;15.70;99.90;;;;;;5050868;28;20044;-79
2022/09/16 08:30:10;;;;;;;3.63;0.95;;;15.60;99.90;;;;;;5051620;28;20029;-79
2022/09/16 08:32:36;;;;;;;6.80;1.08;;;15.70;99.90;;;;;;5049991;28;20029;-79
2022/09/16 08:35:02;;;;;;;3.75;1.02;;;15.70;99.90;;;;;;5051826;28;20040;-79
2022/09/16 08:37:29;;;;;;;3.58;0.98;;;15.70;99.90;;;;;;5050897;28;20032;-78
2022/09/16 08:39:55;;;;;;;3.80;0.90;;;15.90;99.90;;;;;;5051870;28;20052;-78
2022/09/16 08:42:35;;;;;;;3.28;1.50;;;15.90;98.60;;;;;;5049503;28;20033;-83
2022/09/16 08:45:14;;;;;;;8.05;0.70;;;16.00;99.10;;;;;;5052052;28;20040;-80
2022/09/16 08:48:06;;;;;;;4.43;0.90;;;16.10;97.00;;;;;;5033023;28;20037;-78
2022/09/16 08:50:38;;;;;;;3.13;0.70;;;15.90;96.60;;;;;;5032716;28;20075;-79
2022/09/16 08:53:12;;;;;;;3.05;0.82;;;16.00;98.30;;;;;;5050660;28;20430;-80
2022/09/16 08:55:46;;;;;;;3.17;0.82;;;16.20;98.50;;;;;;5033616;28;20225;-79
2022/09/16 08:58:22;;;;;;;3.58;1.65;;;16.60;95.90;;;;;;5034092;28;20470;-80
2022/09/16 09:00:55;;;;;;;1.02;0.50;;;17.40;94.90;;;;;;5051121;28;20045;-80
2022/09/16 09:03:40;;;;;;;3.88;1.25;;;17.70;90.60;;;;;;5050921;28;20049;-81
2022/09/16 09:06:24;;;;;;;5.45;1.00;;;17.60;90.00;;;;;;5016040;28;20082;-78
2022/09/16 09:09:15;;;;;;;5.05;0.80;;;17.80;85.60;;;;;;5052324;28;20498;-79
2022/09/16 09:12:07;;;;;;;2.53;0.60;;;17.10;89.60;;;;;;5031981;28;20037;-79
2022/09/16 09:14:39;;;;;;;6.38;1.30;;;17.00;90.40;;;;;;5048308;28;20040;-78
2022/09/16 09:17:34;;;;;;;3.40;1.20;;;16.90;91.00;;;;;;5051945;28;20029;-78
2022/09/16 09:20:09;;;;;;;2.88;0.68;;;17.00;90.10;;;;;;5052062;28;20048;-80
2022/09/16 09:23:13;;;;;;;1.85;0.63;;;16.90;88.50;;;;;;5050382;28;20033;-78
2022/09/16 09:25:54;;;;;;;5.30;1.20;;;16.70;87.60;;;;;;5053439;28;20033;-76
2022/09/16 09:28:23;;;;;;;;;;;16.70;87.60;;;;;;5049956;28;20466;-87
2022/09/16 09:31:10;;;;;;;2.33;0.43;;;16.20;89.70;;;;;;5054411;28;20289;-82
2022/09/16 09:33:51;;;;;;;1.75;0.70;;;16.30;90.40;;;;;;5054826;28;20033;-77
2022/09/16 09:36:26;;;;;;;1.30;0.70;;;16.50;90.70;;;;;;5059923;28;20040;-79
2022/09/16 09:39:20;;;;;;;2.30;0.80;;;16.40;88.70;;;;;;5060762;28;20040;-79
2022/09/16 09:42:14;;;;;;;2.03;0.60;;;16.20;90.10;;;;;;5027759;28;20049;-79
2022/09/16 09:45:12;;;;;;;33.03;4.30;;;16.30;90.40;;;;;;5060026;28;20040;-79
2022/09/16 09:47:47;;;;;;;2.05;0.65;;;16.50;90.20;;;;;;5009318;28;20041;-79
2022/09/16 09:50:28;;;;;;;4.78;0.50;;;16.50;90.20;;;;;;5039502;28;20381;-79
2022/09/16 09:53:10;;;;;;;4.65;1.25;;;16.80;84.90;;;;;;5054843;28;20032;-78
2022/09/16 09:55:39;;;;;;;3.28;0.63;;;16.90;82.20;;;;;;5055638;28;20382;-78
2022/09/16 09:58:18;;;;;;;2.65;0.40;;;16.80;77.60;;;;;;5056112;28;20029;-79
2022/09/16 10:00:44;;;;;;;2.88;0.50;;;16.70;79.10;;;;;;5055242;28;20048;-79
2022/09/16 10:03:15;;;;;;;1.63;0.30;;;17.20;75.10;;;;;;5055345;28;20033;-79
2022/09/16 10:05:42;;;;;;;2.78;0.60;;;17.80;76.50;;;;;;5055322;28;20032;-79
2022/09/16 10:08:29;;;;;;;4.05;0.73;;;18.10;71.80;;;;;;5055600;28;20040;-79
2022/09/16 10:11:00;;;;;;;1.35;0.55;;;18.00;69.80;;;;;;5054705;28;20029;-79
2022/09/16 10:13:29;;;;;;;4.43;0.43;;;17.80;69.70;;;;;;5055283;28;20427;-79
2022/09/16 10:16:16;;;;;;;2.60;0.47;;;17.40;71.60;;;;;;5055127;28;20041;-79
2022/09/16 10:18:43;;;;;;;6.22;1.83;;;17.40;74.50;;;;;;5049380;28;20419;-79
2022/09/16 10:21:13;;;;;;;1.75;0.40;;;17.10;70.70;;;;;;5053969;28;20037;-80
2022/09/16 10:23:40;;;;;;;2.30;0.65;;;17.10;76.10;;;;;;5054400;28;20033;-79
2022/09/16 10:26:18;;;;;;;2.83;0.68;;;17.40;74.80;;;;;;5054672;28;20029;-80
2022/09/16 10:28:58;;;;;;;0.85;0.57;;;17.80;72.60;;;;;;5036311;28;20036;-79
2022/09/16 10:31:30;;;;;;;3.63;0.50;;;18.10;72.30;;;;;;5052830;28;20393;-80
2022/09/16 10:33:58;;;;;;;5.10;0.75;;;18.40;71.20;;;;;;5036781;28;20037;-79
2022/09/16 10:36:30;;;;;;;1.58;0.60;;;18.30;69.70;;;;;;5054209;28;20029;-82
2022/09/16 10:38:59;;;;;;;3.17;0.50;;;18.20;70.70;;;;;;5053846;28;20041;-79
2022/09/16 10:41:44;;;;;;;4.45;0.50;;;18.10;69.80;;;;;;5053005;28;20048;-78
2022/09/16 10:44:23;;;;;;;1.58;0.60;;;17.80;68.50;;;;;;5054418;28;20046;-79
2022/09/16 10:47:13;;;;;;;2.70;0.38;;;17.60;72.70;;;;;;5055070;28;20025;-79
2022/09/16 10:50:00;;;;;;;2.67;1.30;;;17.50;70.40;;;;;;5035848;28;20048;-79
2022/09/16 10:52:29;;;;;;;2.00;1.10;;;17.70;71.50;;;;;;5055942;28;20033;-79
2022/09/16 10:54:56;;;;;;;0.85;0.43;;;17.60;74.20;;;;;;5054324;28;20056;-79
2022/09/16 10:57:26;;;;;;;3.33;0.70;;;17.50;69.90;;;;;;5055481;28;20037;-79
2022/09/16 11:00:15;;;;;;;2.20;0.40;;;17.20;71.50;;;;;;5058755;28;20044;-78
2022/09/16 11:03:05;;;;;;;2.05;0.77;;;16.90;72.60;;;;;;5041832;28;20351;-78
2022/09/16 11:06:02;;;;;;;3.15;1.45;;;17.20;69.80;;;;;;5060442;28;20033;-77
2022/09/16 11:08:41;;;;;;;3.55;0.55;;;17.50;70.50;;;;;;5057958;28;20040;-78
2022/09/16 11:11:41;;;;;;;1.67;0.65;;;17.70;70.60;;;;;;5056380;28;20260;-78
2022/09/16 11:14:26;;;;;;;1.48;0.40;;;17.50;67.50;;;;;;5060598;28;20033;-79
2022/09/16 11:17:04;;;;;;;2.35;0.45;;;17.20;68.40;;;;;;5061201;28;20033;-79
2022/09/16 11:19:37;;;;;;;2.03;0.40;;;17.30;66.50;;;;;;5059894;28;20040;-77
2022/09/16 11:22:16;;;;;;;0.60;0.30;;;17.30;67.00;;;;;;5036562;28;20037;-76
2022/09/16 11:25:17;;;;;;;1.48;0.30;;;17.40;69.00;;;;;;5053716;28;20029;-76
2022/09/16 11:27:54;;;;;;;1.27;0.30;;;17.80;67.00;;;;;;5035513;28;20047;-76
2022/09/16 11:30:22;;;;;;;2.90;0.30;;;17.90;67.30;;;;;;5053362;28;20041;-77
2022/09/16 11:33:18;;;;;;;1.20;0.55;;;17.80;67.00;;;;;;5051595;28;20363;-76
2022/09/16 11:36:19;;;;;;;3.83;0.80;;;17.80;67.10;;;;;;5047617;28;20025;-76
2022/09/16 11:39:14;;;;;;;2.95;0.68;;;17.70;67.50;;;;;;5050211;28;20466;-78
2022/09/16 11:41:56;;;;;;;2.35;0.70;;;18.00;67.10;;;;;;4987106;28;20428;-76
2022/09/16 11:44:40;;;;;;;2.17;0.60;;;18.30;65.60;;;;;;5052712;28;20107;-77
2022/09/16 11:47:15;;;;;;;1.35;0.40;;;18.20;64.40;;;;;;5053042;28;20025;-76
2022/09/16 11:50:03;;;;;;;2.45;0.50;;;17.80;63.80;;;;;;5034360;28;20044;-75
2022/09/16 11:52:41;;;;;;;2.50;0.50;;;18.00;65.80;;;;;;5032382;28;20032;-77
2022/09/16 11:55:13;;;;;;;4.35;0.52;;;18.10;64.00;;;;;;5052196;28;20036;-76
2022/09/16 11:57:47;;;;;;;1.25;0.50;;;18.20;64.30;;;;;;5034182;28;20500;-77
2022/09/16 12:00:17;;;;;;;1.25;0.40;;;18.30;63.10;;;;;;5045976;28;20509;-77
2022/09/16 12:03:19;;;;;;;0.98;0.52;;;18.40;63.60;;;;;;5044428;28;20056;-77
2022/09/16 12:05:52;;;;;;;2.13;1.20;;;18.80;66.30;;;;;;5007769;28;20045;-76
2022/09/16 12:08:28;;;;;;;2.75;0.73;;;18.60;63.70;;;;;;5033735;28;20477;-77
2022/09/16 12:11:23;;;;;;;2.05;0.50;;;18.70;64.30;;;;;;5050045;28;20033;-76
2022/09/16 12:13:56;;;;;;;1.88;0.30;;;18.50;64.10;;;;;;5047664;28;20610;-76
2022/09/16 12:16:40;;;;;;;2.33;0.80;;;18.40;64.50;;;;;;5052678;28;20041;-80
2022/09/16 12:19:13;;;;;;;2.40;0.63;;;18.20;64.00;;;;;;5051429;28;20470;-75
2022/09/16 12:21:46;;;;;;;1.75;0.30;;;17.70;67.10;;;;;;5049764;28;20037;-77
2022/09/16 12:24:40;;;;;;;2.53;0.50;;;17.80;66.70;;;;;;5052123;28;20036;-75
2022/09/16 12:27:21;;;;;;;1.02;0.30;;;17.70;66.40;;;;;;5050586;28;20068;-76
2022/09/16 12:29:55;;;;;;;1.65;0.40;;;17.60;70.80;;;;;;5051221;28;20040;-76
2022/09/16 12:32:21;;;;;;;6.18;1.00;;;17.50;71.50;;;;;;5050458;28;20049;-77
2022/09/16 12:34:54;;;;;;;6.25;0.60;;;17.40;70.10;;;;;;5051090;28;20032;-76
2022/09/16 12:37:40;;;;;;;1.20;0.43;;;17.40;72.00;;;;;;5051897;28;20478;-81
2022/09/16 12:40:26;;;;;;;2.13;0.60;;;17.60;70.90;;;;;;5030039;28;20041;-80
2022/09/16 12:43:14;;;;;;;1.65;0.60;;;17.70;71.10;;;;;;5051246;28;20031;-79
2022/09/16 12:46:19;;;;;;;4.85;0.40;;;17.80;71.70;;;;;;5051585;28;20485;-79
2022/09/16 12:49:07;;;;;;;2.03;0.50;;;17.60;74.00;;;;;;5052023;28;20036;-78
2022/09/16 12:51:39;;;;;;;4.75;0.70;;;17.70;75.20;;;;;;5050943;28;20060;-79
2022/09/16 12:54:28;;;;;;;2.75;0.57;;;17.50;75.20;;;;;;5052538;28;20033;-78
2022/09/16 12:57:17;;;;;;;5.35;0.55;;;17.60;72.20;;;;;;4974452;28;20039;-78
2022/09/16 13:00:01;;;;;;;1.92;0.45;;;17.50;71.80;;;;;;4988504;28;20176;-78
2022/09/16 13:02:52;;;;;;;1.45;0.20;;;17.70;69.50;;;;;;4958533;28;20035;-78
2022/09/16 13:05:28;;;;;;;0.75;0.38;;;17.80;69.60;;;;;;4973412;29;20043;-78
2022/09/16 13:07:57;;;;;;;1.10;0.43;;;17.80;68.90;;;;;;4997630;28;20054;-79
2022/09/16 13:10:35;;;;;;;4.22;0.70;;;17.80;69.90;;;;;;4983046;28;20516;-79
2022/09/16 13:13:03;;;;;;;2.60;0.40;;;17.70;69.60;;;;;;4977146;28;20051;-79
2022/09/16 13:15:32;;;;;;;0.68;0.32;;;17.70;69.40;;;;;;4976395;28;20050;-81
2022/09/16 13:18:13;;;;;;;3.17;0.55;;;17.80;71.50;;;;;;4969856;28;20354;-78
2022/09/16 13:20:47;;;;;;;1.60;0.50;;;18.00;70.00;;;;;;4973713;28;20050;-78
2022/09/16 13:23:20;;;;;;;1.65;0.47;;;18.20;71.30;;;;;;4975534;28;20038;-79
2022/09/16 13:26:08;;;;;;;4.75;0.60;;;18.30;68.40;;;;;;4971172;28;20035;-79
2022/09/16 13:28:40;;;;;;;3.90;0.60;;;18.20;68.70;;;;;;4973978;28;20428;-82